sensor_id;sensor_type;location;lat;lon;timestamp;P1;durP1;ratioP1;P2;durP2;ratioP2
63499;SDS011;49654;51.142;14.924;2023-11-19T00:00:59;6.63;;;4.83;;
63499;SDS011;49654;51.142;14.924;2023-11-19T00:03:27;7.63;;;4.70;;
63499;SDS011;49654;51.142;14.924;2023-11-19T00:05:54;7.53;;;4.90;;
63499;SDS011;49654;51.142;14.924;2023-11-19T00:08:21;5.37;;;4.50;;
63499;SDS011;49654;51.142;14.924;2023-11-19T00:10:51;6.17;;;4.83;;
63499;SDS011;49654;51.142;14.924;2023-11-19T00:13:18;6.10;;;4.70;;
63499;SDS011;49654;51.142;14.924;2023-11-19T00:15:45;6.00;;;4.63;;
63499;SDS011;49654;51.142;14.924;2023-11-19T00:18:13;5.13;;;4.30;;
63499;SDS011;49654;51.142;14.924;2023-11-19T00:20:40;5.73;;;4.73;;
63499;SDS011;49654;51.142;14.924;2023-11-19T00:23:10;6.97;;;5.00;;
63499;SDS011;49654;51.142;14.924;2023-11-19T00:25:37;5.70;;;4.60;;
63499;SDS011;49654;51.142;14.924;2023-11-19T00:28:06;5.80;;;4.50;;
63499;SDS011;49654;51.142;14.924;2023-11-19T00:30:33;7.47;;;4.87;;
63499;SDS011;49654;51.142;14.924;2023-11-19T00:33:00;6.50;;;4.93;;
63499;SDS011;49654;51.142;14.924;2023-11-19T00:35:27;5.67;;;4.73;;
63499;SDS011;49654;51.142;14.924;2023-11-19T00:37:55;6.30;;;4.43;;
63499;SDS011;49654;51.142;14.924;2023-11-19T00:40:22;7.53;;;4.37;;
63499;SDS011;49654;51.142;14.924;2023-11-19T00:42:50;4.83;;;4.33;;
63499;SDS011;49654;51.142;14.924;2023-11-19T00:45:18;6.00;;;4.67;;
63499;SDS011;49654;51.142;14.924;2023-11-19T00:47:45;6.17;;;4.63;;
63499;SDS011;49654;51.142;14.924;2023-11-19T00:50:12;7.77;;;5.03;;
63499;SDS011;49654;51.142;14.924;2023-11-19T00:52:39;7.90;;;5.27;;
63499;SDS011;49654;51.142;14.924;2023-11-19T00:55:07;5.77;;;4.80;;
63499;SDS011;49654;51.142;14.924;2023-11-19T00:57:34;6.33;;;4.83;;
63499;SDS011;49654;51.142;14.924;2023-11-19T01:00:02;6.17;;;4.70;;
63499;SDS011;49654;51.142;14.924;2023-11-19T01:02:36;7.20;;;5.00;;
63499;SDS011;49654;51.142;14.924;2023-11-19T01:05:03;5.83;;;4.63;;
63499;SDS011;49654;51.142;14.924;2023-11-19T01:07:30;7.67;;;4.70;;
63499;SDS011;49654;51.142;14.924;2023-11-19T01:09:57;6.70;;;4.83;;
63499;SDS011;49654;51.142;14.924;2023-11-19T01:12:24;8.30;;;5.37;;
63499;SDS011;49654;51.142;14.924;2023-11-19T01:14:51;7.40;;;4.93;;
63499;SDS011;49654;51.142;14.924;2023-11-19T01:17:18;7.07;;;5.53;;
63499;SDS011;49654;51.142;14.924;2023-11-19T01:19:47;7.07;;;4.90;;
63499;SDS011;49654;51.142;14.924;2023-11-19T01:22:15;9.33;;;5.50;;
63499;SDS011;49654;51.142;14.924;2023-11-19T01:24:42;7.07;;;5.40;;
63499;SDS011;49654;51.142;14.924;2023-11-19T01:27:09;8.17;;;5.43;;
63499;SDS011;49654;51.142;14.924;2023-11-19T01:29:36;7.67;;;5.57;;
63499;SDS011;49654;51.142;14.924;2023-11-19T01:32:05;8.93;;;5.80;;
63499;SDS011;49654;51.142;14.924;2023-11-19T01:34:32;7.30;;;5.80;;
63499;SDS011;49654;51.142;14.924;2023-11-19T01:37:02;7.97;;;5.70;;
63499;SDS011;49654;51.142;14.924;2023-11-19T01:39:29;8.03;;;6.17;;
63499;SDS011;49654;51.142;14.924;2023-11-19T01:41:56;8.13;;;6.37;;
63499;SDS011;49654;51.142;14.924;2023-11-19T01:44:23;7.10;;;5.73;;
63499;SDS011;49654;51.142;14.924;2023-11-19T01:46:50;10.50;;;6.60;;
63499;SDS011;49654;51.142;14.924;2023-11-19T01:49:18;10.27;;;6.20;;
63499;SDS011;49654;51.142;14.924;2023-11-19T01:51:46;10.23;;;6.67;;
63499;SDS011;49654;51.142;14.924;2023-11-19T01:54:15;8.00;;;6.37;;
63499;SDS011;49654;51.142;14.924;2023-11-19T01:56:42;12.23;;;6.90;;
63499;SDS011;49654;51.142;14.924;2023-11-19T01:59:10;8.03;;;6.43;;
63499;SDS011;49654;51.142;14.924;2023-11-19T02:01:39;9.07;;;7.30;;
63499;SDS011;49654;51.142;14.924;2023-11-19T02:04:07;10.63;;;7.40;;
63499;SDS011;49654;51.142;14.924;2023-11-19T02:06:35;10.30;;;6.97;;
63499;SDS011;49654;51.142;14.924;2023-11-19T02:09:07;9.90;;;7.60;;
63499;SDS011;49654;51.142;14.924;2023-11-19T02:11:37;10.07;;;7.97;;
63499;SDS011;49654;51.142;14.924;2023-11-19T02:14:07;10.57;;;7.43;;
63499;SDS011;49654;51.142;14.924;2023-11-19T02:16:34;13.43;;;8.30;;
63499;SDS011;49654;51.142;14.924;2023-11-19T02:19:01;9.57;;;7.97;;
63499;SDS011;49654;51.142;14.924;2023-11-19T02:21:29;11.87;;;8.73;;
63499;SDS011;49654;51.142;14.924;2023-11-19T02:23:56;12.17;;;9.40;;
63499;SDS011;49654;51.142;14.924;2023-11-19T02:26:24;11.23;;;8.97;;
63499;SDS011;49654;51.142;14.924;2023-11-19T02:28:57;10.77;;;9.00;;
63499;SDS011;49654;51.142;14.924;2023-11-19T02:31:24;11.23;;;8.70;;
63499;SDS011;49654;51.142;14.924;2023-11-19T02:33:53;14.10;;;9.60;;
63499;SDS011;49654;51.142;14.924;2023-11-19T02:36:20;14.23;;;10.17;;
63499;SDS011;49654;51.142;14.924;2023-11-19T02:38:48;15.57;;;9.80;;
63499;SDS011;49654;51.142;14.924;2023-11-19T02:41:15;13.40;;;9.93;;
63499;SDS011;49654;51.142;14.924;2023-11-19T02:43:42;13.87;;;10.30;;
63499;SDS011;49654;51.142;14.924;2023-11-19T02:46:11;13.03;;;10.13;;
63499;SDS011;49654;51.142;14.924;2023-11-19T02:48:38;11.57;;;9.80;;
63499;SDS011;49654;51.142;14.924;2023-11-19T02:51:05;17.00;;;10.87;;
63499;SDS011;49654;51.142;14.924;2023-11-19T02:53:35;14.50;;;10.63;;
63499;SDS011;49654;51.142;14.924;2023-11-19T02:56:03;12.67;;;10.00;;
63499;SDS011;49654;51.142;14.924;2023-11-19T02:58:42;12.47;;;10.13;;
63499;SDS011;49654;51.142;14.924;2023-11-19T03:01:11;13.70;;;10.87;;
63499;SDS011;49654;51.142;14.924;2023-11-19T03:03:48;12.77;;;10.43;;
63499;SDS011;49654;51.142;14.924;2023-11-19T03:06:20;13.33;;;10.40;;
63499;SDS011;49654;51.142;14.924;2023-11-19T03:08:47;14.87;;;11.47;;
63499;SDS011;49654;51.142;14.924;2023-11-19T03:11:15;15.27;;;11.10;;
63499;SDS011;49654;51.142;14.924;2023-11-19T03:13:42;13.97;;;11.20;;
63499;SDS011;49654;51.142;14.924;2023-11-19T03:16:09;13.93;;;11.57;;
63499;SDS011;49654;51.142;14.924;2023-11-19T03:18:38;15.83;;;11.33;;
63499;SDS011;49654;51.142;14.924;2023-11-19T03:21:05;15.17;;;11.50;;
63499;SDS011;49654;51.142;14.924;2023-11-19T03:23:33;13.73;;;10.50;;
63499;SDS011;49654;51.142;14.924;2023-11-19T03:26:00;14.90;;;10.67;;
63499;SDS011;49654;51.142;14.924;2023-11-19T03:28:31;14.07;;;10.97;;
63499;SDS011;49654;51.142;14.924;2023-11-19T03:30:58;12.77;;;10.53;;
63499;SDS011;49654;51.142;14.924;2023-11-19T03:33:25;13.53;;;10.83;;
63499;SDS011;49654;51.142;14.924;2023-11-19T03:35:55;13.30;;;10.53;;
63499;SDS011;49654;51.142;14.924;2023-11-19T03:38:23;14.03;;;10.97;;
63499;SDS011;49654;51.142;14.924;2023-11-19T03:40:50;12.63;;;10.37;;
63499;SDS011;49654;51.142;14.924;2023-11-19T03:43:17;16.40;;;11.07;;
63499;SDS011;49654;51.142;14.924;2023-11-19T03:45:44;14.83;;;10.23;;
63499;SDS011;49654;51.142;14.924;2023-11-19T03:48:11;16.13;;;11.00;;
63499;SDS011;49654;51.142;14.924;2023-11-19T03:50:41;14.27;;;10.60;;
63499;SDS011;49654;51.142;14.924;2023-11-19T03:53:11;16.20;;;10.87;;
63499;SDS011;49654;51.142;14.924;2023-11-19T03:55:39;14.13;;;10.50;;
63499;SDS011;49654;51.142;14.924;2023-11-19T03:58:06;14.07;;;10.77;;
63499;SDS011;49654;51.142;14.924;2023-11-19T04:00:33;12.60;;;10.23;;
63499;SDS011;49654;51.142;14.924;2023-11-19T04:03:00;12.57;;;10.17;;
63499;SDS011;49654;51.142;14.924;2023-11-19T04:05:27;12.43;;;9.20;;
63499;SDS011;49654;51.142;14.924;2023-11-19T04:07:54;13.43;;;9.87;;
63499;SDS011;49654;51.142;14.924;2023-11-19T04:10:22;11.40;;;9.47;;
63499;SDS011;49654;51.142;14.924;2023-11-19T04:12:49;14.63;;;9.57;;
63499;SDS011;49654;51.142;14.924;2023-11-19T04:15:17;10.37;;;8.20;;
63499;SDS011;49654;51.142;14.924;2023-11-19T04:17:44;10.30;;;8.27;;
63499;SDS011;49654;51.142;14.924;2023-11-19T04:20:12;9.60;;;7.37;;
63499;SDS011;49654;51.142;14.924;2023-11-19T04:22:40;9.80;;;7.10;;
63499;SDS011;49654;51.142;14.924;2023-11-19T04:25:07;8.67;;;7.03;;
63499;SDS011;49654;51.142;14.924;2023-11-19T04:27:36;8.37;;;6.90;;
63499;SDS011;49654;51.142;14.924;2023-11-19T04:30:03;10.10;;;7.40;;
63499;SDS011;49654;51.142;14.924;2023-11-19T04:32:35;8.07;;;6.87;;
63499;SDS011;49654;51.142;14.924;2023-11-19T04:35:02;8.73;;;7.40;;
63499;SDS011;49654;51.142;14.924;2023-11-19T04:37:30;11.50;;;7.50;;
63499;SDS011;49654;51.142;14.924;2023-11-19T04:39:57;8.30;;;7.37;;
63499;SDS011;49654;51.142;14.924;2023-11-19T04:42:25;8.73;;;7.43;;
63499;SDS011;49654;51.142;14.924;2023-11-19T04:47:49;8.50;;;6.60;;
63499;SDS011;49654;51.142;14.924;2023-11-19T04:50:17;7.90;;;7.10;;
63499;SDS011;49654;51.142;14.924;2023-11-19T04:52:44;8.30;;;6.63;;
63499;SDS011;49654;51.142;14.924;2023-11-19T04:55:12;10.00;;;6.20;;
63499;SDS011;49654;51.142;14.924;2023-11-19T04:57:39;9.57;;;7.30;;
63499;SDS011;49654;51.142;14.924;2023-11-19T05:00:09;8.43;;;7.03;;
63499;SDS011;49654;51.142;14.924;2023-11-19T05:02:37;8.47;;;7.33;;
63499;SDS011;49654;51.142;14.924;2023-11-19T05:05:04;7.37;;;6.00;;
63499;SDS011;49654;51.142;14.924;2023-11-19T05:07:31;8.03;;;6.40;;
63499;SDS011;49654;51.142;14.924;2023-11-19T05:09:58;6.47;;;5.73;;
63499;SDS011;49654;51.142;14.924;2023-11-19T05:12:25;7.53;;;5.93;;
63499;SDS011;49654;51.142;14.924;2023-11-19T05:14:52;8.07;;;6.27;;
63499;SDS011;49654;51.142;14.924;2023-11-19T05:17:21;7.57;;;6.70;;
63499;SDS011;49654;51.142;14.924;2023-11-19T05:19:48;8.40;;;6.50;;
63499;SDS011;49654;51.142;14.924;2023-11-19T05:22:15;8.50;;;6.37;;
63499;SDS011;49654;51.142;14.924;2023-11-19T05:24:42;7.80;;;6.37;;
63499;SDS011;49654;51.142;14.924;2023-11-19T05:27:09;8.30;;;6.80;;
63499;SDS011;49654;51.142;14.924;2023-11-19T05:29:38;7.17;;;6.37;;
63499;SDS011;49654;51.142;14.924;2023-11-19T05:32:14;7.63;;;6.57;;
63499;SDS011;49654;51.142;14.924;2023-11-19T05:34:43;9.83;;;6.90;;
63499;SDS011;49654;51.142;14.924;2023-11-19T05:37:10;8.07;;;6.70;;
63499;SDS011;49654;51.142;14.924;2023-11-19T05:39:37;9.83;;;7.97;;
63499;SDS011;49654;51.142;14.924;2023-11-19T05:42:04;8.33;;;7.23;;
63499;SDS011;49654;51.142;14.924;2023-11-19T05:44:31;9.70;;;7.17;;
63499;SDS011;49654;51.142;14.924;2023-11-19T05:46:58;11.00;;;6.77;;
63499;SDS011;49654;51.142;14.924;2023-11-19T05:49:25;8.40;;;7.00;;
63499;SDS011;49654;51.142;14.924;2023-11-19T05:51:54;9.53;;;7.13;;
63499;SDS011;49654;51.142;14.924;2023-11-19T05:54:21;8.13;;;7.00;;
63499;SDS011;49654;51.142;14.924;2023-11-19T05:56:48;9.97;;;7.37;;
63499;SDS011;49654;51.142;14.924;2023-11-19T05:59:15;8.10;;;6.90;;
63499;SDS011;49654;51.142;14.924;2023-11-19T06:01:43;9.33;;;7.27;;
63499;SDS011;49654;51.142;14.924;2023-11-19T06:04:10;7.80;;;7.00;;
63499;SDS011;49654;51.142;14.924;2023-11-19T06:06:38;8.27;;;7.27;;
63499;SDS011;49654;51.142;14.924;2023-11-19T06:09:07;9.00;;;7.30;;
63499;SDS011;49654;51.142;14.924;2023-11-19T06:11:35;7.03;;;6.30;;
63499;SDS011;49654;51.142;14.924;2023-11-19T06:14:02;8.80;;;7.23;;
63499;SDS011;49654;51.142;14.924;2023-11-19T06:16:31;7.83;;;7.03;;
63499;SDS011;49654;51.142;14.924;2023-11-19T06:18:58;8.83;;;6.87;;
63499;SDS011;49654;51.142;14.924;2023-11-19T06:21:25;7.00;;;6.30;;
63499;SDS011;49654;51.142;14.924;2023-11-19T06:23:52;8.47;;;6.70;;
63499;SDS011;49654;51.142;14.924;2023-11-19T06:26:21;8.93;;;6.30;;
63499;SDS011;49654;51.142;14.924;2023-11-19T06:28:49;7.60;;;6.20;;
63499;SDS011;49654;51.142;14.924;2023-11-19T06:31:16;6.60;;;5.87;;
63499;SDS011;49654;51.142;14.924;2023-11-19T06:33:43;7.77;;;5.70;;
63499;SDS011;49654;51.142;14.924;2023-11-19T06:36:10;6.97;;;5.77;;
63499;SDS011;49654;51.142;14.924;2023-11-19T06:38:37;6.80;;;6.10;;
63499;SDS011;49654;51.142;14.924;2023-11-19T06:41:06;6.17;;;5.57;;
63499;SDS011;49654;51.142;14.924;2023-11-19T06:43:36;6.97;;;5.50;;
63499;SDS011;49654;51.142;14.924;2023-11-19T06:46:03;8.17;;;5.73;;
63499;SDS011;49654;51.142;14.924;2023-11-19T06:48:31;6.70;;;5.83;;
63499;SDS011;49654;51.142;14.924;2023-11-19T06:50:59;7.40;;;5.97;;
63499;SDS011;49654;51.142;14.924;2023-11-19T06:53:26;8.70;;;6.67;;
63499;SDS011;49654;51.142;14.924;2023-11-19T06:55:53;6.93;;;6.10;;
63499;SDS011;49654;51.142;14.924;2023-11-19T06:58:20;7.43;;;6.50;;
63499;SDS011;49654;51.142;14.924;2023-11-19T07:00:49;7.70;;;6.90;;
63499;SDS011;49654;51.142;14.924;2023-11-19T07:03:16;7.77;;;6.97;;
63499;SDS011;49654;51.142;14.924;2023-11-19T07:05:43;9.27;;;7.40;;
63499;SDS011;49654;51.142;14.924;2023-11-19T07:08:10;7.47;;;6.77;;
63499;SDS011;49654;51.142;14.924;2023-11-19T07:10:37;7.83;;;6.67;;
63499;SDS011;49654;51.142;14.924;2023-11-19T07:13:04;7.60;;;6.80;;
63499;SDS011;49654;51.142;14.924;2023-11-19T07:15:31;7.53;;;6.43;;
63499;SDS011;49654;51.142;14.924;2023-11-19T07:18:00;7.13;;;5.90;;
63499;SDS011;49654;51.142;14.924;2023-11-19T07:20:27;6.13;;;5.53;;
63499;SDS011;49654;51.142;14.924;2023-11-19T07:22:54;6.77;;;6.03;;
63499;SDS011;49654;51.142;14.924;2023-11-19T07:25:22;6.60;;;5.10;;
63499;SDS011;49654;51.142;14.924;2023-11-19T07:27:51;6.07;;;5.40;;
63499;SDS011;49654;51.142;14.924;2023-11-19T07:30:18;5.90;;;4.80;;
63499;SDS011;49654;51.142;14.924;2023-11-19T07:32:45;6.50;;;5.07;;
63499;SDS011;49654;51.142;14.924;2023-11-19T07:35:13;5.30;;;4.80;;
63499;SDS011;49654;51.142;14.924;2023-11-19T07:37:41;5.47;;;4.90;;
63499;SDS011;49654;51.142;14.924;2023-11-19T07:40:08;6.43;;;4.60;;
63499;SDS011;49654;51.142;14.924;2023-11-19T07:42:37;5.10;;;4.43;;
63499;SDS011;49654;51.142;14.924;2023-11-19T07:45:04;4.40;;;4.00;;
63499;SDS011;49654;51.142;14.924;2023-11-19T07:47:32;4.77;;;3.87;;
63499;SDS011;49654;51.142;14.924;2023-11-19T07:49:59;3.93;;;3.53;;
63499;SDS011;49654;51.142;14.924;2023-11-19T07:52:28;4.37;;;3.77;;
63499;SDS011;49654;51.142;14.924;2023-11-19T07:54:55;4.20;;;3.80;;
63499;SDS011;49654;51.142;14.924;2023-11-19T07:57:22;5.57;;;3.30;;
63499;SDS011;49654;51.142;14.924;2023-11-19T07:59:50;3.53;;;3.00;;
63499;SDS011;49654;51.142;14.924;2023-11-19T08:02:17;4.00;;;2.80;;
63499;SDS011;49654;51.142;14.924;2023-11-19T08:04:44;3.63;;;2.90;;
63499;SDS011;49654;51.142;14.924;2023-11-19T08:07:12;2.83;;;2.53;;
63499;SDS011;49654;51.142;14.924;2023-11-19T08:09:41;3.13;;;2.47;;
63499;SDS011;49654;51.142;14.924;2023-11-19T08:12:08;2.83;;;2.53;;
63499;SDS011;49654;51.142;14.924;2023-11-19T08:14:35;3.30;;;2.60;;
63499;SDS011;49654;51.142;14.924;2023-11-19T08:17:02;2.90;;;2.50;;
63499;SDS011;49654;51.142;14.924;2023-11-19T08:19:29;3.80;;;2.53;;
63499;SDS011;49654;51.142;14.924;2023-11-19T08:21:56;2.87;;;2.50;;
63499;SDS011;49654;51.142;14.924;2023-11-19T08:24:23;3.57;;;3.10;;
63499;SDS011;49654;51.142;14.924;2023-11-19T08:26:52;4.00;;;3.07;;
63499;SDS011;49654;51.142;14.924;2023-11-19T08:29:19;3.50;;;2.97;;
63499;SDS011;49654;51.142;14.924;2023-11-19T08:31:47;3.87;;;3.07;;
63499;SDS011;49654;51.142;14.924;2023-11-19T08:34:14;3.10;;;2.80;;
63499;SDS011;49654;51.142;14.924;2023-11-19T08:36:41;3.33;;;2.93;;
63499;SDS011;49654;51.142;14.924;2023-11-19T08:39:08;3.57;;;3.20;;
63499;SDS011;49654;51.142;14.924;2023-11-19T08:41:35;3.67;;;3.03;;
63499;SDS011;49654;51.142;14.924;2023-11-19T08:44:05;3.43;;;3.00;;
63499;SDS011;49654;51.142;14.924;2023-11-19T08:46:32;3.33;;;3.03;;
63499;SDS011;49654;51.142;14.924;2023-11-19T08:48:59;3.00;;;2.70;;
63499;SDS011;49654;51.142;14.924;2023-11-19T08:51:26;3.10;;;2.80;;
63499;SDS011;49654;51.142;14.924;2023-11-19T08:53:54;2.73;;;2.53;;
63499;SDS011;49654;51.142;14.924;2023-11-19T08:56:21;2.60;;;2.40;;
63499;SDS011;49654;51.142;14.924;2023-11-19T08:58:48;2.50;;;2.30;;
63499;SDS011;49654;51.142;14.924;2023-11-19T09:01:16;3.20;;;2.90;;
63499;SDS011;49654;51.142;14.924;2023-11-19T09:03:43;2.90;;;2.60;;
63499;SDS011;49654;51.142;14.924;2023-11-19T09:06:10;3.63;;;3.00;;
63499;SDS011;49654;51.142;14.924;2023-11-19T09:08:37;3.80;;;2.80;;
63499;SDS011;49654;51.142;14.924;2023-11-19T09:11:06;3.27;;;2.97;;
63499;SDS011;49654;51.142;14.924;2023-11-19T09:13:34;3.23;;;2.93;;
63499;SDS011;49654;51.142;14.924;2023-11-19T09:16:01;3.40;;;2.93;;
63499;SDS011;49654;51.142;14.924;2023-11-19T09:18:30;3.23;;;2.93;;
63499;SDS011;49654;51.142;14.924;2023-11-19T09:20:58;3.93;;;3.10;;
63499;SDS011;49654;51.142;14.924;2023-11-19T09:23:25;4.03;;;2.90;;
63499;SDS011;49654;51.142;14.924;2023-11-19T09:25:53;3.40;;;3.00;;
63499;SDS011;49654;51.142;14.924;2023-11-19T09:28:20;3.13;;;2.80;;
63499;SDS011;49654;51.142;14.924;2023-11-19T09:30:47;4.03;;;3.27;;
63499;SDS011;49654;51.142;14.924;2023-11-19T09:33:14;3.53;;;3.13;;
63499;SDS011;49654;51.142;14.924;2023-11-19T09:35:46;3.03;;;2.73;;
63499;SDS011;49654;51.142;14.924;2023-11-19T09:38:16;3.30;;;3.00;;
63499;SDS011;49654;51.142;14.924;2023-11-19T09:40:43;3.57;;;3.20;;
63499;SDS011;49654;51.142;14.924;2023-11-19T09:43:10;3.67;;;3.33;;
63499;SDS011;49654;51.142;14.924;2023-11-19T09:45:40;3.57;;;3.27;;
63499;SDS011;49654;51.142;14.924;2023-11-19T09:48:14;4.03;;;3.30;;
63499;SDS011;49654;51.142;14.924;2023-11-19T09:50:43;3.60;;;3.30;;
63499;SDS011;49654;51.142;14.924;2023-11-19T09:53:12;4.47;;;3.27;;
63499;SDS011;49654;51.142;14.924;2023-11-19T09:55:41;2.97;;;2.67;;
63499;SDS011;49654;51.142;14.924;2023-11-19T09:58:09;2.90;;;2.70;;
63499;SDS011;49654;51.142;14.924;2023-11-19T10:00:38;2.90;;;2.70;;
63499;SDS011;49654;51.142;14.924;2023-11-19T10:03:06;2.60;;;2.40;;
63499;SDS011;49654;51.142;14.924;2023-11-19T10:05:37;3.83;;;2.60;;
63499;SDS011;49654;51.142;14.924;2023-11-19T10:08:05;2.80;;;2.60;;
63499;SDS011;49654;51.142;14.924;2023-11-19T10:10:34;3.50;;;2.70;;
63499;SDS011;49654;51.142;14.924;2023-11-19T10:13:01;2.77;;;2.53;;
63499;SDS011;49654;51.142;14.924;2023-11-19T10:15:29;2.73;;;1.90;;
63499;SDS011;49654;51.142;14.924;2023-11-19T10:18:02;2.00;;;1.80;;
63499;SDS011;49654;51.142;14.924;2023-11-19T10:20:34;2.33;;;2.13;;
63499;SDS011;49654;51.142;14.924;2023-11-19T10:23:02;2.77;;;2.03;;
63499;SDS011;49654;51.142;14.924;2023-11-19T10:25:29;2.43;;;1.90;;
63499;SDS011;49654;51.142;14.924;2023-11-19T10:28:01;2.63;;;2.10;;
63499;SDS011;49654;51.142;14.924;2023-11-19T10:30:29;2.33;;;2.13;;
63499;SDS011;49654;51.142;14.924;2023-11-19T10:33:05;2.43;;;2.10;;
63499;SDS011;49654;51.142;14.924;2023-11-19T10:35:33;2.63;;;2.07;;
63499;SDS011;49654;51.142;14.924;2023-11-19T10:38:01;3.07;;;2.10;;
63499;SDS011;49654;51.142;14.924;2023-11-19T10:40:37;3.80;;;2.13;;
63499;SDS011;49654;51.142;14.924;2023-11-19T10:43:06;2.40;;;2.20;;
63499;SDS011;49654;51.142;14.924;2023-11-19T10:45:34;2.63;;;2.30;;
63499;SDS011;49654;51.142;14.924;2023-11-19T10:48:01;2.53;;;2.33;;
63499;SDS011;49654;51.142;14.924;2023-11-19T10:50:30;3.88;;;2.53;;
63499;SDS011;49654;51.142;14.924;2023-11-19T10:53:00;2.13;;;1.80;;
63499;SDS011;49654;51.142;14.924;2023-11-19T10:55:29;2.20;;;2.00;;
63499;SDS011;49654;51.142;14.924;2023-11-19T10:57:58;2.20;;;2.00;;
63499;SDS011;49654;51.142;14.924;2023-11-19T11:00:28;2.33;;;2.05;;
63499;SDS011;49654;51.142;14.924;2023-11-19T11:03:00;3.87;;;2.53;;
63499;SDS011;49654;51.142;14.924;2023-11-19T11:05:29;3.25;;;2.67;;
63499;SDS011;49654;51.142;14.924;2023-11-19T11:08:00;2.70;;;2.33;;
63499;SDS011;49654;51.142;14.924;2023-11-19T11:10:31;2.50;;;2.00;;
63499;SDS011;49654;51.142;14.924;2023-11-19T11:13:08;2.40;;;2.20;;
63499;SDS011;49654;51.142;14.924;2023-11-19T11:15:39;2.35;;;2.10;;
63499;SDS011;49654;51.142;14.924;2023-11-19T11:18:08;3.15;;;2.20;;
63499;SDS011;49654;51.142;14.924;2023-11-19T11:20:38;2.33;;;2.13;;
63499;SDS011;49654;51.142;14.924;2023-11-19T11:26:23;3.10;;;2.25;;
63499;SDS011;49654;51.142;14.924;2023-11-19T11:29:09;2.47;;;1.80;;
63499;SDS011;49654;51.142;14.924;2023-11-19T11:31:51;3.47;;;2.00;;
63499;SDS011;49654;51.142;14.924;2023-11-19T11:34:47;3.17;;;1.92;;
63499;SDS011;49654;51.142;14.924;2023-11-19T11:37:31;2.67;;;2.00;;
63499;SDS011;49654;51.142;14.924;2023-11-19T11:40:01;2.13;;;1.92;;
63499;SDS011;49654;51.142;14.924;2023-11-19T11:42:36;3.22;;;2.00;;
63499;SDS011;49654;51.142;14.924;2023-11-19T11:45:08;4.50;;;2.60;;
63499;SDS011;49654;51.142;14.924;2023-11-19T11:50:52;3.38;;;1.85;;
63499;SDS011;49654;51.142;14.924;2023-11-19T11:53:28;3.15;;;2.20;;
63499;SDS011;49654;51.142;14.924;2023-11-19T11:56:00;2.33;;;2.10;;
63499;SDS011;49654;51.142;14.924;2023-11-19T11:58:31;3.78;;;2.20;;
63499;SDS011;49654;51.142;14.924;2023-11-19T12:01:02;5.32;;;2.28;;
63499;SDS011;49654;51.142;14.924;2023-11-19T12:03:49;4.57;;;2.40;;
63499;SDS011;49654;51.142;14.924;2023-11-19T12:06:20;4.85;;;2.60;;
63499;SDS011;49654;51.142;14.924;2023-11-19T12:08:48;3.25;;;2.20;;
63499;SDS011;49654;51.142;14.924;2023-11-19T12:11:16;4.38;;;2.50;;
63499;SDS011;49654;51.142;14.924;2023-11-19T12:13:56;2.95;;;2.22;;
63499;SDS011;49654;51.142;14.924;2023-11-19T12:16:28;3.25;;;2.28;;
63499;SDS011;49654;51.142;14.924;2023-11-19T12:18:57;2.92;;;2.00;;
63499;SDS011;49654;51.142;14.924;2023-11-19T12:21:34;2.33;;;2.00;;
63499;SDS011;49654;51.142;14.924;2023-11-19T12:24:03;3.20;;;2.10;;
63499;SDS011;49654;51.142;14.924;2023-11-19T12:26:34;3.90;;;2.42;;
63499;SDS011;49654;51.142;14.924;2023-11-19T12:29:02;4.40;;;2.45;;
63499;SDS011;49654;51.142;14.924;2023-11-19T12:31:32;3.08;;;2.30;;
63499;SDS011;49654;51.142;14.924;2023-11-19T12:34:10;2.95;;;2.40;;
63499;SDS011;49654;51.142;14.924;2023-11-19T12:36:39;3.80;;;2.83;;
63499;SDS011;49654;51.142;14.924;2023-11-19T12:39:15;3.20;;;2.20;;
63499;SDS011;49654;51.142;14.924;2023-11-19T12:41:51;4.07;;;2.60;;
63499;SDS011;49654;51.142;14.924;2023-11-19T12:44:23;4.38;;;3.00;;
63499;SDS011;49654;51.142;14.924;2023-11-19T12:47:00;4.75;;;3.25;;
63499;SDS011;49654;51.142;14.924;2023-11-19T12:49:38;5.03;;;3.30;;
63499;SDS011;49654;51.142;14.924;2023-11-19T12:52:12;6.47;;;3.28;;
63499;SDS011;49654;51.142;14.924;2023-11-19T12:54:40;5.90;;;3.30;;
63499;SDS011;49654;51.142;14.924;2023-11-19T13:00:17;5.47;;;4.07;;
63499;SDS011;49654;51.142;14.924;2023-11-19T13:02:52;5.28;;;4.00;;
63499;SDS011;49654;51.142;14.924;2023-11-19T13:05:28;5.13;;;3.63;;
63499;SDS011;49654;51.142;14.924;2023-11-19T13:08:00;4.45;;;3.60;;
63499;SDS011;49654;51.142;14.924;2023-11-19T13:10:32;8.02;;;4.05;;
63499;SDS011;49654;51.142;14.924;2023-11-19T13:13:01;6.93;;;4.25;;
63499;SDS011;49654;51.142;14.924;2023-11-19T13:15:29;8.23;;;3.92;;
63499;SDS011;49654;51.142;14.924;2023-11-19T13:17:56;8.55;;;4.18;;
63499;SDS011;49654;51.142;14.924;2023-11-19T13:20:31;9.80;;;3.42;;
63499;SDS011;49654;51.142;14.924;2023-11-19T13:23:00;6.82;;;3.38;;
63499;SDS011;49654;51.142;14.924;2023-11-19T13:25:33;14.88;;;5.13;;
63499;SDS011;49654;51.142;14.924;2023-11-19T13:28:11;12.75;;;3.65;;
63499;SDS011;49654;51.142;14.924;2023-11-19T13:30:45;9.48;;;3.67;;
63499;SDS011;49654;51.142;14.924;2023-11-19T13:33:13;13.52;;;3.45;;
63499;SDS011;49654;51.142;14.924;2023-11-19T13:35:51;11.27;;;3.45;;
63499;SDS011;49654;51.142;14.924;2023-11-19T13:38:22;12.20;;;4.50;;
63499;SDS011;49654;51.142;14.924;2023-11-19T13:40:53;8.23;;;2.83;;
63499;SDS011;49654;51.142;14.924;2023-11-19T13:43:24;10.48;;;2.78;;
63499;SDS011;49654;51.142;14.924;2023-11-19T13:45:53;7.45;;;2.92;;
63499;SDS011;49654;51.142;14.924;2023-11-19T13:48:21;9.80;;;2.92;;
63499;SDS011;49654;51.142;14.924;2023-11-19T13:50:56;8.35;;;2.55;;
63499;SDS011;49654;51.142;14.924;2023-11-19T13:53:31;10.13;;;2.83;;
63499;SDS011;49654;51.142;14.924;2023-11-19T13:55:58;11.20;;;2.50;;
63499;SDS011;49654;51.142;14.924;2023-11-19T13:58:25;9.45;;;2.13;;
63499;SDS011;49654;51.142;14.924;2023-11-19T14:00:53;5.43;;;2.13;;
63499;SDS011;49654;51.142;14.924;2023-11-19T14:03:23;6.55;;;2.20;;
63499;SDS011;49654;51.142;14.924;2023-11-19T14:05:54;9.00;;;2.47;;
63499;SDS011;49654;51.142;14.924;2023-11-19T14:08:24;9.38;;;2.75;;
63499;SDS011;49654;51.142;14.924;2023-11-19T14:10:53;6.63;;;2.22;;
63499;SDS011;49654;51.142;14.924;2023-11-19T14:13:23;8.95;;;2.40;;
63499;SDS011;49654;51.142;14.924;2023-11-19T14:15:52;7.80;;;2.15;;
63499;SDS011;49654;51.142;14.924;2023-11-19T14:18:20;7.20;;;2.22;;
63499;SDS011;49654;51.142;14.924;2023-11-19T14:20:49;6.47;;;1.98;;
63499;SDS011;49654;51.142;14.924;2023-11-19T14:23:21;7.72;;;2.00;;
63499;SDS011;49654;51.142;14.924;2023-11-19T14:25:49;12.30;;;2.75;;
63499;SDS011;49654;51.142;14.924;2023-11-19T14:28:19;7.07;;;2.30;;
63499;SDS011;49654;51.142;14.924;2023-11-19T14:30:46;5.85;;;3.42;;
63499;SDS011;49654;51.142;14.924;2023-11-19T14:33:19;4.80;;;3.33;;
63499;SDS011;49654;51.142;14.924;2023-11-19T14:35:46;7.03;;;3.70;;
63499;SDS011;49654;51.142;14.924;2023-11-19T14:38:14;8.93;;;3.83;;
63499;SDS011;49654;51.142;14.924;2023-11-19T14:40:43;8.75;;;4.18;;
63499;SDS011;49654;51.142;14.924;2023-11-19T14:43:10;5.32;;;3.80;;
63499;SDS011;49654;51.142;14.924;2023-11-19T14:45:37;5.25;;;3.80;;
63499;SDS011;49654;51.142;14.924;2023-11-19T14:48:05;6.55;;;4.22;;
63499;SDS011;49654;51.142;14.924;2023-11-19T14:50:32;8.15;;;4.90;;
63499;SDS011;49654;51.142;14.924;2023-11-19T14:52:59;6.70;;;4.53;;